sensor_id;sensor_type;location;lat;lon;timestamp;P1;durP1;ratioP1;P2;durP2;ratioP2
58260;SDS011;44058;52.898;6.502;2023-07-20T00:02:02;4.13;;;2.42;;
58260;SDS011;44058;52.898;6.502;2023-07-20T00:04:30;2.60;;;2.40;;
58260;SDS011;44058;52.898;6.502;2023-07-20T00:06:57;2.50;;;2.30;;
58260;SDS011;44058;52.898;6.502;2023-07-20T00:09:23;3.33;;;2.60;;
58260;SDS011;44058;52.898;6.502;2023-07-20T00:11:50;2.83;;;2.60;;
58260;SDS011;44058;52.898;6.502;2023-07-20T00:14:16;2.45;;;2.25;;
58260;SDS011;44058;52.898;6.502;2023-07-20T00:16:43;2.90;;;2.70;;
58260;SDS011;44058;52.898;6.502;2023-07-20T00:19:09;3.00;;;2.72;;
58260;SDS011;44058;52.898;6.502;2023-07-20T00:21:35;3.92;;;2.88;;
58260;SDS011;44058;52.898;6.502;2023-07-20T00:24:02;2.80;;;2.60;;
58260;SDS011;44058;52.898;6.502;2023-07-20T00:26:29;2.95;;;2.75;;
58260;SDS011;44058;52.898;6.502;2023-07-20T00:28:55;4.55;;;2.90;;
58260;SDS011;44058;52.898;6.502;2023-07-20T00:31:21;3.97;;;2.90;;
58260;SDS011;44058;52.898;6.502;2023-07-20T00:33:47;3.45;;;2.97;;
58260;SDS011;44058;52.898;6.502;2023-07-20T00:36:13;3.15;;;2.72;;
58260;SDS011;44058;52.898;6.502;2023-07-20T00:38:39;3.17;;;2.92;;
58260;SDS011;44058;52.898;6.502;2023-07-20T00:41:06;2.80;;;2.60;;
58260;SDS011;44058;52.898;6.502;2023-07-20T00:43:32;3.67;;;3.33;;
58260;SDS011;44058;52.898;6.502;2023-07-20T00:45:58;3.65;;;3.28;;
58260;SDS011;44058;52.898;6.502;2023-07-20T00:48:25;6.43;;;3.42;;
58260;SDS011;44058;52.898;6.502;2023-07-20T00:50:51;3.67;;;3.08;;
58260;SDS011;44058;52.898;6.502;2023-07-20T00:53:17;3.58;;;3.28;;
58260;SDS011;44058;52.898;6.502;2023-07-20T00:55:44;3.33;;;3.13;;
58260;SDS011;44058;52.898;6.502;2023-07-20T00:58:10;3.65;;;3.35;;
58260;SDS011;44058;52.898;6.502;2023-07-20T01:00:36;3.55;;;3.10;;
58260;SDS011;44058;52.898;6.502;2023-07-20T01:03:02;3.88;;;3.58;;
58260;SDS011;44058;52.898;6.502;2023-07-20T01:05:33;3.13;;;2.90;;
58260;SDS011;44058;52.898;6.502;2023-07-20T01:08:05;3.60;;;3.30;;
58260;SDS011;44058;52.898;6.502;2023-07-20T01:12:59;3.28;;;3.08;;
58260;SDS011;44058;52.898;6.502;2023-07-20T01:15:26;4.90;;;3.38;;
58260;SDS011;44058;52.898;6.502;2023-07-20T01:17:52;3.97;;;2.90;;
58260;SDS011;44058;52.898;6.502;2023-07-20T01:20:19;3.40;;;3.13;;
58260;SDS011;44058;52.898;6.502;2023-07-20T01:33:23;3.28;;;3.08;;
58260;SDS011;44058;52.898;6.502;2023-07-20T01:35:54;2.90;;;2.67;;
58260;SDS011;44058;52.898;6.502;2023-07-20T01:38:22;3.25;;;3.05;;
58260;SDS011;44058;52.898;6.502;2023-07-20T01:40:49;3.67;;;3.20;;
58260;SDS011;44058;52.898;6.502;2023-07-20T01:43:15;3.42;;;3.15;;
58260;SDS011;44058;52.898;6.502;2023-07-20T01:45:41;3.60;;;3.30;;
58260;SDS011;44058;52.898;6.502;2023-07-20T01:48:07;4.03;;;3.60;;
58260;SDS011;44058;52.898;6.502;2023-07-20T01:50:34;3.85;;;3.33;;
58260;SDS011;44058;52.898;6.502;2023-07-20T01:53:01;3.75;;;3.30;;
58260;SDS011;44058;52.898;6.502;2023-07-20T01:55:27;3.20;;;2.90;;
58260;SDS011;44058;52.898;6.502;2023-07-20T01:57:54;3.10;;;2.90;;
58260;SDS011;44058;52.898;6.502;2023-07-20T02:00:20;3.28;;;2.97;;
58260;SDS011;44058;52.898;6.502;2023-07-20T02:02:49;4.35;;;3.47;;
58260;SDS011;44058;52.898;6.502;2023-07-20T02:05:15;3.63;;;3.25;;
58260;SDS011;44058;52.898;6.502;2023-07-20T02:07:42;3.60;;;3.28;;
58260;SDS011;44058;52.898;6.502;2023-07-20T02:10:08;3.97;;;2.83;;
58260;SDS011;44058;52.898;6.502;2023-07-20T02:12:34;3.63;;;3.20;;
58260;SDS011;44058;52.898;6.502;2023-07-20T02:15:01;3.50;;;3.20;;
58260;SDS011;44058;52.898;6.502;2023-07-20T02:17:27;3.45;;;3.15;;
58260;SDS011;44058;52.898;6.502;2023-07-20T02:19:53;3.17;;;2.92;;
58260;SDS011;44058;52.898;6.502;2023-07-20T02:22:20;3.08;;;2.88;;
58260;SDS011;44058;52.898;6.502;2023-07-20T02:24:46;3.50;;;3.08;;
58260;SDS011;44058;52.898;6.502;2023-07-20T02:27:12;4.05;;;3.00;;
58260;SDS011;44058;52.898;6.502;2023-07-20T02:29:40;3.55;;;2.67;;
58260;SDS011;44058;52.898;6.502;2023-07-20T02:32:06;3.25;;;2.95;;
58260;SDS011;44058;52.898;6.502;2023-07-20T02:34:32;3.72;;;2.85;;
58260;SDS011;44058;52.898;6.502;2023-07-20T02:36:59;3.10;;;2.88;;
58260;SDS011;44058;52.898;6.502;2023-07-20T02:39:29;2.70;;;2.50;;
58260;SDS011;44058;52.898;6.502;2023-07-20T02:41:55;3.10;;;2.80;;
58260;SDS011;44058;52.898;6.502;2023-07-20T02:44:21;4.80;;;2.70;;
58260;SDS011;44058;52.898;6.502;2023-07-20T02:46:48;4.90;;;2.53;;
58260;SDS011;44058;52.898;6.502;2023-07-20T02:49:17;3.47;;;3.17;;
58260;SDS011;44058;52.898;6.502;2023-07-20T02:51:44;3.20;;;2.72;;
58260;SDS011;44058;52.898;6.502;2023-07-20T02:54:11;3.25;;;2.92;;
58260;SDS011;44058;52.898;6.502;2023-07-20T02:56:37;3.25;;;2.95;;
58260;SDS011;44058;52.898;6.502;2023-07-20T02:59:03;3.28;;;2.97;;
58260;SDS011;44058;52.898;6.502;2023-07-20T03:01:29;3.17;;;2.90;;
58260;SDS011;44058;52.898;6.502;2023-07-20T03:03:55;3.67;;;3.00;;
58260;SDS011;44058;52.898;6.502;2023-07-20T03:06:22;3.15;;;2.95;;
58260;SDS011;44058;52.898;6.502;2023-07-20T03:08:49;3.00;;;2.70;;
58260;SDS011;44058;52.898;6.502;2023-07-20T03:11:17;2.50;;;2.30;;
58260;SDS011;44058;52.898;6.502;2023-07-20T03:13:44;2.63;;;2.42;;
58260;SDS011;44058;52.898;6.502;2023-07-20T03:16:11;2.25;;;2.08;;
58260;SDS011;44058;52.898;6.502;2023-07-20T03:18:38;2.20;;;2.00;;
58260;SDS011;44058;52.898;6.502;2023-07-20T03:21:04;2.53;;;2.33;;
58260;SDS011;44058;52.898;6.502;2023-07-20T03:23:31;3.13;;;2.92;;
58260;SDS011;44058;52.898;6.502;2023-07-20T03:25:57;2.58;;;2.38;;
58260;SDS011;44058;52.898;6.502;2023-07-20T03:28:23;2.80;;;2.60;;
58260;SDS011;44058;52.898;6.502;2023-07-20T03:30:53;1.60;;;1.50;;
58260;SDS011;44058;52.898;6.502;2023-07-20T03:33:21;2.33;;;2.05;;
58260;SDS011;44058;52.898;6.502;2023-07-20T03:35:47;2.22;;;2.03;;
58260;SDS011;44058;52.898;6.502;2023-07-20T03:38:13;2.40;;;2.20;;
58260;SDS011;44058;52.898;6.502;2023-07-20T03:40:39;2.50;;;2.30;;
58260;SDS011;44058;52.898;6.502;2023-07-20T03:43:14;2.95;;;2.65;;
58260;SDS011;44058;52.898;6.502;2023-07-20T03:45:40;3.08;;;2.80;;
58260;SDS011;44058;52.898;6.502;2023-07-20T03:48:06;3.47;;;3.17;;
58260;SDS011;44058;52.898;6.502;2023-07-20T03:50:32;3.03;;;2.83;;
58260;SDS011;44058;52.898;6.502;2023-07-20T03:52:59;3.38;;;3.08;;
58260;SDS011;44058;52.898;6.502;2023-07-20T03:55:25;2.88;;;2.55;;
58260;SDS011;44058;52.898;6.502;2023-07-20T03:57:51;3.22;;;2.92;;
58260;SDS011;44058;52.898;6.502;2023-07-20T04:00:17;3.10;;;2.90;;
58260;SDS011;44058;52.898;6.502;2023-07-20T04:02:44;2.70;;;2.50;;
58260;SDS011;44058;52.898;6.502;2023-07-20T04:05:10;3.00;;;2.70;;
58260;SDS011;44058;52.898;6.502;2023-07-20T04:07:36;3.00;;;2.80;;
58260;SDS011;44058;52.898;6.502;2023-07-20T04:10:02;3.13;;;2.83;;
58260;SDS011;44058;52.898;6.502;2023-07-20T04:12:28;4.07;;;3.38;;
58260;SDS011;44058;52.898;6.502;2023-07-20T04:14:54;3.20;;;3.00;;
58260;SDS011;44058;52.898;6.502;2023-07-20T04:17:20;3.40;;;2.97;;
58260;SDS011;44058;52.898;6.502;2023-07-20T04:19:47;3.67;;;2.83;;
58260;SDS011;44058;52.898;6.502;2023-07-20T04:22:13;4.22;;;3.05;;
58260;SDS011;44058;52.898;6.502;2023-07-20T04:24:41;4.13;;;3.10;;
58260;SDS011;44058;52.898;6.502;2023-07-20T04:27:07;4.10;;;2.80;;
58260;SDS011;44058;52.898;6.502;2023-07-20T04:29:33;3.63;;;3.05;;
58260;SDS011;44058;52.898;6.502;2023-07-20T04:32:00;6.55;;;3.28;;
58260;SDS011;44058;52.898;6.502;2023-07-20T04:34:26;4.47;;;2.90;;
58260;SDS011;44058;52.898;6.502;2023-07-20T04:36:52;5.32;;;2.70;;
58260;SDS011;44058;52.898;6.502;2023-07-20T04:39:18;4.13;;;3.38;;
58260;SDS011;44058;52.898;6.502;2023-07-20T04:41:44;4.35;;;3.00;;
58260;SDS011;44058;52.898;6.502;2023-07-20T04:44:10;3.42;;;3.13;;
58260;SDS011;44058;52.898;6.502;2023-07-20T04:46:36;3.17;;;2.75;;
58260;SDS011;44058;52.898;6.502;2023-07-20T04:49:02;3.13;;;2.83;;
58260;SDS011;44058;52.898;6.502;2023-07-20T04:51:28;3.63;;;3.33;;
58260;SDS011;44058;52.898;6.502;2023-07-20T04:53:56;3.50;;;3.05;;
58260;SDS011;44058;52.898;6.502;2023-07-20T04:56:22;4.68;;;2.90;;
58260;SDS011;44058;52.898;6.502;2023-07-20T04:58:48;3.60;;;3.30;;
58260;SDS011;44058;52.898;6.502;2023-07-20T05:01:14;2.75;;;2.55;;
58260;SDS011;44058;52.898;6.502;2023-07-20T05:03:40;4.68;;;2.92;;
58260;SDS011;44058;52.898;6.502;2023-07-20T05:06:06;3.15;;;2.80;;
58260;SDS011;44058;52.898;6.502;2023-07-20T05:08:32;3.30;;;2.63;;
58260;SDS011;44058;52.898;6.502;2023-07-20T05:11:02;2.83;;;2.60;;
58260;SDS011;44058;52.898;6.502;2023-07-20T05:13:28;3.28;;;2.97;;
58260;SDS011;44058;52.898;6.502;2023-07-20T05:15:54;3.30;;;3.00;;
58260;SDS011;44058;52.898;6.502;2023-07-20T05:18:20;2.85;;;2.65;;
58260;SDS011;44058;52.898;6.502;2023-07-20T05:20:47;3.25;;;2.92;;
58260;SDS011;44058;52.898;6.502;2023-07-20T05:23:13;3.35;;;3.05;;
58260;SDS011;44058;52.898;6.502;2023-07-20T05:25:39;3.15;;;2.92;;
58260;SDS011;44058;52.898;6.502;2023-07-20T05:28:06;4.18;;;3.05;;
58260;SDS011;44058;52.898;6.502;2023-07-20T05:30:32;2.97;;;2.65;;
58260;SDS011;44058;52.898;6.502;2023-07-20T05:32:58;2.55;;;2.33;;
58260;SDS011;44058;52.898;6.502;2023-07-20T05:35:25;3.90;;;2.38;;
58260;SDS011;44058;52.898;6.502;2023-07-20T05:37:51;2.80;;;2.40;;
58260;SDS011;44058;52.898;6.502;2023-07-20T05:40:17;3.17;;;2.33;;
58260;SDS011;44058;52.898;6.502;2023-07-20T05:42:47;3.95;;;2.30;;
58260;SDS011;44058;52.898;6.502;2023-07-20T05:45:17;2.95;;;2.17;;
58260;SDS011;44058;52.898;6.502;2023-07-20T05:47:43;3.92;;;1.80;;
58260;SDS011;44058;52.898;6.502;2023-07-20T05:50:10;2.00;;;1.80;;
58260;SDS011;44058;52.898;6.502;2023-07-20T05:52:36;3.00;;;2.08;;
58260;SDS011;44058;52.898;6.502;2023-07-20T05:55:05;3.88;;;2.08;;
58260;SDS011;44058;52.898;6.502;2023-07-20T05:57:31;2.92;;;1.90;;
58260;SDS011;44058;52.898;6.502;2023-07-20T05:59:57;2.15;;;1.83;;
58260;SDS011;44058;52.898;6.502;2023-07-20T06:02:23;4.32;;;1.90;;
58260;SDS011;44058;52.898;6.502;2023-07-20T06:04:49;2.95;;;1.73;;
58260;SDS011;44058;52.898;6.502;2023-07-20T06:07:16;2.05;;;1.50;;
58260;SDS011;44058;52.898;6.502;2023-07-20T06:09:42;2.60;;;1.52;;
58260;SDS011;44058;52.898;6.502;2023-07-20T06:12:08;3.38;;;1.70;;
58260;SDS011;44058;52.898;6.502;2023-07-20T06:14:34;3.67;;;1.40;;
58260;SDS011;44058;52.898;6.502;2023-07-20T06:17:00;4.88;;;1.42;;
58260;SDS011;44058;52.898;6.502;2023-07-20T06:19:26;2.63;;;1.30;;
58260;SDS011;44058;52.898;6.502;2023-07-20T06:21:53;2.35;;;1.23;;
58260;SDS011;44058;52.898;6.502;2023-07-20T06:24:19;2.25;;;1.20;;
58260;SDS011;44058;52.898;6.502;2023-07-20T06:26:45;3.45;;;1.33;;
58260;SDS011;44058;52.898;6.502;2023-07-20T06:29:11;2.45;;;1.25;;
58260;SDS011;44058;52.898;6.502;2023-07-20T06:31:37;1.58;;;1.20;;
58260;SDS011;44058;52.898;6.502;2023-07-20T06:34:03;2.67;;;1.20;;
58260;SDS011;44058;52.898;6.502;2023-07-20T06:36:29;1.13;;;0.95;;
58260;SDS011;44058;52.898;6.502;2023-07-20T06:38:56;2.70;;;1.02;;
58260;SDS011;44058;52.898;6.502;2023-07-20T06:41:22;2.35;;;1.20;;
58260;SDS011;44058;52.898;6.502;2023-07-20T06:43:48;2.35;;;1.08;;
58260;SDS011;44058;52.898;6.502;2023-07-20T06:46:14;1.52;;;1.00;;
58260;SDS011;44058;52.898;6.502;2023-07-20T06:48:40;4.00;;;1.45;;
58260;SDS011;44058;52.898;6.502;2023-07-20T06:51:06;2.00;;;1.20;;
58260;SDS011;44058;52.898;6.502;2023-07-20T06:53:32;3.67;;;1.27;;
58260;SDS011;44058;52.898;6.502;2023-07-20T06:55:59;1.88;;;1.10;;
58260;SDS011;44058;52.898;6.502;2023-07-20T06:58:25;1.35;;;0.90;;
58260;SDS011;44058;52.898;6.502;2023-07-20T07:00:52;2.53;;;1.23;;
58260;SDS011;44058;52.898;6.502;2023-07-20T07:03:18;2.00;;;1.10;;
58260;SDS011;44058;52.898;6.502;2023-07-20T07:05:44;2.90;;;1.10;;
58260;SDS011;44058;52.898;6.502;2023-07-20T07:08:10;4.47;;;1.00;;
58260;SDS011;44058;52.898;6.502;2023-07-20T07:10:38;3.00;;;0.90;;
58260;SDS011;44058;52.898;6.502;2023-07-20T07:13:04;3.00;;;0.82;;
58260;SDS011;44058;52.898;6.502;2023-07-20T07:15:30;1.92;;;1.00;;
58260;SDS011;44058;52.898;6.502;2023-07-20T07:17:56;2.95;;;0.80;;
58260;SDS011;44058;52.898;6.502;2023-07-20T07:20:24;1.50;;;0.90;;
58260;SDS011;44058;52.898;6.502;2023-07-20T07:22:51;2.90;;;1.10;;
58260;SDS011;44058;52.898;6.502;2023-07-20T07:25:18;2.08;;;0.93;;
58260;SDS011;44058;52.898;6.502;2023-07-20T07:27:44;1.70;;;0.80;;
58260;SDS011;44058;52.898;6.502;2023-07-20T07:30:11;1.20;;;0.77;;
58260;SDS011;44058;52.898;6.502;2023-07-20T07:32:37;1.75;;;0.70;;
58260;SDS011;44058;52.898;6.502;2023-07-20T07:35:04;2.65;;;1.10;;
58260;SDS011;44058;52.898;6.502;2023-07-20T07:37:30;1.25;;;0.70;;
58260;SDS011;44058;52.898;6.502;2023-07-20T07:39:56;3.08;;;0.90;;
58260;SDS011;44058;52.898;6.502;2023-07-20T07:42:22;1.67;;;0.90;;
58260;SDS011;44058;52.898;6.502;2023-07-20T07:44:48;1.92;;;0.88;;
58260;SDS011;44058;52.898;6.502;2023-07-20T07:47:14;1.80;;;0.90;;
58260;SDS011;44058;52.898;6.502;2023-07-20T07:49:41;1.73;;;0.80;;
58260;SDS011;44058;52.898;6.502;2023-07-20T07:52:07;4.97;;;1.02;;
58260;SDS011;44058;52.898;6.502;2023-07-20T07:54:33;3.28;;;1.00;;
58260;SDS011;44058;52.898;6.502;2023-07-20T07:57:00;1.00;;;0.73;;
58260;SDS011;44058;52.898;6.502;2023-07-20T07:59:26;3.92;;;0.90;;
58260;SDS011;44058;52.898;6.502;2023-07-20T08:01:52;2.35;;;0.90;;
58260;SDS011;44058;52.898;6.502;2023-07-20T08:04:18;3.15;;;1.10;;
58260;SDS011;44058;52.898;6.502;2023-07-20T08:06:44;1.83;;;0.88;;
58260;SDS011;44058;52.898;6.502;2023-07-20T08:09:10;2.40;;;0.80;;
58260;SDS011;44058;52.898;6.502;2023-07-20T08:11:38;2.45;;;0.95;;
58260;SDS011;44058;52.898;6.502;2023-07-20T08:14:04;2.67;;;0.82;;
58260;SDS011;44058;52.898;6.502;2023-07-20T08:16:31;0.80;;;0.70;;
58260;SDS011;44058;52.898;6.502;2023-07-20T08:18:57;2.40;;;0.77;;
58260;SDS011;44058;52.898;6.502;2023-07-20T08:21:23;2.80;;;0.80;;
58260;SDS011;44058;52.898;6.502;2023-07-20T08:23:49;2.03;;;0.80;;
58260;SDS011;44058;52.898;6.502;2023-07-20T08:26:15;3.65;;;0.90;;
58260;SDS011;44058;52.898;6.502;2023-07-20T08:28:42;1.30;;;0.80;;
58260;SDS011;44058;52.898;6.502;2023-07-20T08:31:08;2.60;;;0.77;;
58260;SDS011;44058;52.898;6.502;2023-07-20T08:33:34;0.90;;;0.70;;
58260;SDS011;44058;52.898;6.502;2023-07-20T08:36:00;2.70;;;0.93;;
58260;SDS011;44058;52.898;6.502;2023-07-20T08:38:28;2.20;;;0.95;;
58260;SDS011;44058;52.898;6.502;2023-07-20T08:40:54;1.48;;;0.65;;
58260;SDS011;44058;52.898;6.502;2023-07-20T08:43:21;4.05;;;1.00;;
58260;SDS011;44058;52.898;6.502;2023-07-20T08:45:49;3.53;;;1.00;;
58260;SDS011;44058;52.898;6.502;2023-07-20T08:48:15;3.67;;;0.90;;
58260;SDS011;44058;52.898;6.502;2023-07-20T08:50:43;1.58;;;0.70;;
58260;SDS011;44058;52.898;6.502;2023-07-20T08:53:09;2.15;;;0.82;;
58260;SDS011;44058;52.898;6.502;2023-07-20T08:55:36;1.27;;;0.85;;
58260;SDS011;44058;52.898;6.502;2023-07-20T08:58:03;1.52;;;0.73;;
58260;SDS011;44058;52.898;6.502;2023-07-20T09:00:31;2.85;;;0.80;;
58260;SDS011;44058;52.898;6.502;2023-07-20T09:02:57;0.88;;;0.60;;
58260;SDS011;44058;52.898;6.502;2023-07-20T09:05:25;2.65;;;0.80;;
58260;SDS011;44058;52.898;6.502;2023-07-20T09:07:52;2.30;;;0.80;;
58260;SDS011;44058;52.898;6.502;2023-07-20T09:10:19;0.98;;;0.68;;
58260;SDS011;44058;52.898;6.502;2023-07-20T09:12:46;1.73;;;0.60;;
58260;SDS011;44058;52.898;6.502;2023-07-20T09:15:12;1.15;;;0.40;;
58260;SDS011;44058;52.898;6.502;2023-07-20T09:17:38;3.40;;;0.70;;
58260;SDS011;44058;52.898;6.502;2023-07-20T09:20:05;3.63;;;0.70;;
58260;SDS011;44058;52.898;6.502;2023-07-20T09:22:36;0.90;;;0.70;;
58260;SDS011;44058;52.898;6.502;2023-07-20T09:27:37;2.05;;;0.95;;
58260;SDS011;44058;52.898;6.502;2023-07-20T09:30:04;3.15;;;0.90;;
58260;SDS011;44058;52.898;6.502;2023-07-20T09:32:34;1.02;;;0.75;;
58260;SDS011;44058;52.898;6.502;2023-07-20T09:35:04;2.60;;;0.77;;
58260;SDS011;44058;52.898;6.502;2023-07-20T09:37:30;0.80;;;0.80;;
58260;SDS011;44058;52.898;6.502;2023-07-20T09:39:58;4.72;;;1.10;;
58260;SDS011;44058;52.898;6.502;2023-07-20T09:42:25;1.67;;;0.90;;
58260;SDS011;44058;52.898;6.502;2023-07-20T09:44:52;3.20;;;0.93;;
58260;SDS011;44058;52.898;6.502;2023-07-20T09:47:22;3.83;;;0.90;;
58260;SDS011;44058;52.898;6.502;2023-07-20T09:49:48;3.67;;;1.15;;
58260;SDS011;44058;52.898;6.502;2023-07-20T09:52:14;3.03;;;0.90;;
58260;SDS011;44058;52.898;6.502;2023-07-20T09:54:40;3.17;;;1.08;;
58260;SDS011;44058;52.898;6.502;2023-07-20T09:57:08;1.60;;;1.02;;
58260;SDS011;44058;52.898;6.502;2023-07-20T09:59:37;1.10;;;1.00;;
58260;SDS011;44058;52.898;6.502;2023-07-20T10:02:05;1.30;;;0.93;;
58260;SDS011;44058;52.898;6.502;2023-07-20T10:04:33;2.30;;;1.23;;
58260;SDS011;44058;52.898;6.502;2023-07-20T10:07:00;1.13;;;0.98;;
58260;SDS011;44058;52.898;6.502;2023-07-20T10:09:30;1.75;;;1.00;;
58260;SDS011;44058;52.898;6.502;2023-07-20T10:11:57;2.40;;;1.20;;
58260;SDS011;44058;52.898;6.502;2023-07-20T10:14:24;1.98;;;1.08;;
58260;SDS011;44058;52.898;6.502;2023-07-20T10:16:51;3.15;;;1.08;;
58260;SDS011;44058;52.898;6.502;2023-07-20T10:19:25;1.85;;;1.15;;
58260;SDS011;44058;52.898;6.502;2023-07-20T10:24:38;1.33;;;1.10;;
58260;SDS011;44058;52.898;6.502;2023-07-20T10:27:05;2.67;;;1.23;;
58260;SDS011;44058;52.898;6.502;2023-07-20T10:29:31;1.85;;;1.10;;
58260;SDS011;44058;52.898;6.502;2023-07-20T10:31:58;1.77;;;1.00;;
58260;SDS011;44058;52.898;6.502;2023-07-20T10:34:24;1.30;;;0.80;;
58260;SDS011;44058;52.898;6.502;2023-07-20T10:36:50;1.00;;;0.90;;
58260;SDS011;44058;52.898;6.502;2023-07-20T10:39:23;1.45;;;1.00;;
58260;SDS011;44058;52.898;6.502;2023-07-20T10:41:50;1.92;;;1.15;;
58260;SDS011;44058;52.898;6.502;2023-07-20T10:44:19;2.17;;;1.10;;
58260;SDS011;44058;52.898;6.502;2023-07-20T10:46:45;3.65;;;1.33;;
58260;SDS011;44058;52.898;6.502;2023-07-20T10:49:12;2.10;;;1.17;;
58260;SDS011;44058;52.898;6.502;2023-07-20T10:51:47;1.95;;;1.05;;
58260;SDS011;44058;52.898;6.502;2023-07-20T10:56:51;0.95;;;0.82;;
58260;SDS011;44058;52.898;6.502;2023-07-20T11:01:46;1.75;;;1.05;;
58260;SDS011;44058;52.898;6.502;2023-07-20T11:04:16;2.40;;;1.15;;
58260;SDS011;44058;52.898;6.502;2023-07-20T11:06:44;1.20;;;0.80;;
58260;SDS011;44058;52.898;6.502;2023-07-20T11:09:11;2.50;;;0.98;;
58260;SDS011;44058;52.898;6.502;2023-07-20T11:11:44;2.58;;;1.10;;
58260;SDS011;44058;52.898;6.502;2023-07-20T11:14:19;2.10;;;0.80;;
58260;SDS011;44058;52.898;6.502;2023-07-20T11:16:46;1.98;;;1.20;;
58260;SDS011;44058;52.898;6.502;2023-07-20T11:19:13;1.13;;;0.90;;
58260;SDS011;44058;52.898;6.502;2023-07-20T11:21:43;2.35;;;1.20;;
58260;SDS011;44058;52.898;6.502;2023-07-20T11:24:10;1.45;;;1.00;;
